sensor_id;sensor_type;location;lat;lon;timestamp;P1;durP1;ratioP1;P2;durP2;ratioP2
14137;SDS011;8199;51.310;9.466;2024-01-15T00:00:47;10.18;;;8.25;;
14137;SDS011;8199;51.310;9.466;2024-01-15T00:03:13;10.45;;;8.30;;
14137;SDS011;8199;51.310;9.466;2024-01-15T00:05:38;9.15;;;7.90;;
14137;SDS011;8199;51.310;9.466;2024-01-15T00:08:04;9.70;;;7.95;;
14137;SDS011;8199;51.310;9.466;2024-01-15T00:10:30;9.00;;;7.78;;
14137;SDS011;8199;51.310;9.466;2024-01-15T00:12:55;8.75;;;7.78;;
14137;SDS011;8199;51.310;9.466;2024-01-15T00:15:21;8.35;;;7.13;;
14137;SDS011;8199;51.310;9.466;2024-01-15T00:17:47;8.68;;;7.78;;
14137;SDS011;8199;51.310;9.466;2024-01-15T00:20:12;7.93;;;7.13;;
14137;SDS011;8199;51.310;9.466;2024-01-15T00:22:38;8.15;;;7.15;;
14137;SDS011;8199;51.310;9.466;2024-01-15T00:25:04;7.90;;;6.38;;
14137;SDS011;8199;51.310;9.466;2024-01-15T00:27:30;7.47;;;6.68;;
14137;SDS011;8199;51.310;9.466;2024-01-15T00:29:55;8.00;;;6.60;;
14137;SDS011;8199;51.310;9.466;2024-01-15T00:32:21;7.38;;;6.30;;
14137;SDS011;8199;51.310;9.466;2024-01-15T00:34:46;7.25;;;6.32;;
14137;SDS011;8199;51.310;9.466;2024-01-15T00:37:12;7.82;;;6.55;;
14137;SDS011;8199;51.310;9.466;2024-01-15T00:39:38;6.20;;;5.60;;
14137;SDS011;8199;51.310;9.466;2024-01-15T00:42:03;6.40;;;5.78;;
14137;SDS011;8199;51.310;9.466;2024-01-15T00:44:29;7.18;;;6.15;;
14137;SDS011;8199;51.310;9.466;2024-01-15T00:46:55;7.00;;;6.13;;
14137;SDS011;8199;51.310;9.466;2024-01-15T00:49:20;7.25;;;6.25;;
14137;SDS011;8199;51.310;9.466;2024-01-15T00:51:46;6.18;;;5.57;;
14137;SDS011;8199;51.310;9.466;2024-01-15T00:54:12;5.55;;;4.97;;
14137;SDS011;8199;51.310;9.466;2024-01-15T00:56:38;5.60;;;5.10;;
14137;SDS011;8199;51.310;9.466;2024-01-15T00:59:03;5.53;;;4.70;;
14137;SDS011;8199;51.310;9.466;2024-01-15T01:01:29;6.45;;;5.53;;
14137;SDS011;8199;51.310;9.466;2024-01-15T01:03:55;5.13;;;4.63;;
14137;SDS011;8199;51.310;9.466;2024-01-15T01:06:20;5.47;;;4.97;;
14137;SDS011;8199;51.310;9.466;2024-01-15T01:08:46;5.68;;;4.93;;
14137;SDS011;8199;51.310;9.466;2024-01-15T01:11:15;5.18;;;4.43;;
14137;SDS011;8199;51.310;9.466;2024-01-15T01:13:41;5.25;;;4.70;;
14137;SDS011;8199;51.310;9.466;2024-01-15T01:16:06;5.07;;;4.55;;
14137;SDS011;8199;51.310;9.466;2024-01-15T01:18:32;5.18;;;4.68;;
14137;SDS011;8199;51.310;9.466;2024-01-15T01:20:58;4.45;;;4.05;;
14137;SDS011;8199;51.310;9.466;2024-01-15T01:23:23;3.53;;;3.22;;
14137;SDS011;8199;51.310;9.466;2024-01-15T01:25:49;4.53;;;4.07;;
14137;SDS011;8199;51.310;9.466;2024-01-15T01:28:14;4.50;;;4.10;;
14137;SDS011;8199;51.310;9.466;2024-01-15T01:30:40;4.60;;;4.18;;
14137;SDS011;8199;51.310;9.466;2024-01-15T01:33:05;4.68;;;4.28;;
14137;SDS011;8199;51.310;9.466;2024-01-15T01:35:31;4.47;;;4.00;;
14137;SDS011;8199;51.310;9.466;2024-01-15T01:37:57;4.28;;;3.88;;
14137;SDS011;8199;51.310;9.466;2024-01-15T01:40:22;4.15;;;3.80;;
14137;SDS011;8199;51.310;9.466;2024-01-15T01:42:48;4.32;;;3.47;;
14137;SDS011;8199;51.310;9.466;2024-01-15T01:45:14;3.60;;;3.30;;
14137;SDS011;8199;51.310;9.466;2024-01-15T01:47:40;3.88;;;3.47;;
14137;SDS011;8199;51.310;9.466;2024-01-15T01:50:06;3.80;;;3.50;;
14137;SDS011;8199;51.310;9.466;2024-01-15T01:52:32;3.30;;;3.00;;
14137;SDS011;8199;51.310;9.466;2024-01-15T01:54:58;3.80;;;3.50;;
14137;SDS011;8199;51.310;9.466;2024-01-15T01:57:27;3.60;;;3.30;;
14137;SDS011;8199;51.310;9.466;2024-01-15T01:59:53;4.05;;;3.75;;
14137;SDS011;8199;51.310;9.466;2024-01-15T02:02:19;3.78;;;3.47;;
14137;SDS011;8199;51.310;9.466;2024-01-15T02:04:46;3.60;;;3.30;;
14137;SDS011;8199;51.310;9.466;2024-01-15T02:07:12;3.60;;;3.30;;
14137;SDS011;8199;51.310;9.466;2024-01-15T02:09:38;4.13;;;3.47;;
14137;SDS011;8199;51.310;9.466;2024-01-15T02:12:04;3.58;;;3.28;;
14137;SDS011;8199;51.310;9.466;2024-01-15T02:14:29;3.13;;;2.83;;
14137;SDS011;8199;51.310;9.466;2024-01-15T02:16:55;3.38;;;3.08;;
14137;SDS011;8199;51.310;9.466;2024-01-15T02:19:21;3.65;;;2.95;;
14137;SDS011;8199;51.310;9.466;2024-01-15T02:21:46;3.30;;;2.60;;
14137;SDS011;8199;51.310;9.466;2024-01-15T02:24:12;3.33;;;3.03;;
14137;SDS011;8199;51.310;9.466;2024-01-15T02:26:38;3.28;;;2.97;;
14137;SDS011;8199;51.310;9.466;2024-01-15T02:29:04;3.40;;;3.10;;
14137;SDS011;8199;51.310;9.466;2024-01-15T02:31:33;2.88;;;2.67;;
14137;SDS011;8199;51.310;9.466;2024-01-15T02:33:58;3.70;;;3.20;;
14137;SDS011;8199;51.310;9.466;2024-01-15T02:36:24;3.38;;;3.08;;
14137;SDS011;8199;51.310;9.466;2024-01-15T02:38:49;3.40;;;2.90;;
14137;SDS011;8199;51.310;9.466;2024-01-15T02:41:15;3.05;;;2.85;;
14137;SDS011;8199;51.310;9.466;2024-01-15T02:43:40;3.35;;;3.05;;
14137;SDS011;8199;51.310;9.466;2024-01-15T02:46:06;2.90;;;2.70;;
14137;SDS011;8199;51.310;9.466;2024-01-15T02:48:32;3.53;;;3.20;;
14137;SDS011;8199;51.310;9.466;2024-01-15T02:50:59;3.33;;;3.03;;
14137;SDS011;8199;51.310;9.466;2024-01-15T02:53:25;3.13;;;2.70;;
14137;SDS011;8199;51.310;9.466;2024-01-15T02:55:51;3.35;;;2.70;;
14137;SDS011;8199;51.310;9.466;2024-01-15T02:58:16;3.45;;;2.60;;
14137;SDS011;8199;51.310;9.466;2024-01-15T03:00:42;3.40;;;2.92;;
14137;SDS011;8199;51.310;9.466;2024-01-15T03:03:08;3.40;;;2.80;;
14137;SDS011;8199;51.310;9.466;2024-01-15T03:05:34;3.83;;;2.78;;
14137;SDS011;8199;51.310;9.466;2024-01-15T03:07:59;2.55;;;2.35;;
14137;SDS011;8199;51.310;9.466;2024-01-15T03:10:25;3.00;;;2.75;;
14137;SDS011;8199;51.310;9.466;2024-01-15T03:12:50;3.70;;;3.13;;
14137;SDS011;8199;51.310;9.466;2024-01-15T03:15:16;2.63;;;2.42;;
14137;SDS011;8199;51.310;9.466;2024-01-15T03:17:43;3.08;;;2.78;;
14137;SDS011;8199;51.310;9.466;2024-01-15T03:20:09;3.30;;;2.60;;
14137;SDS011;8199;51.310;9.466;2024-01-15T03:22:35;2.75;;;2.55;;
14137;SDS011;8199;51.310;9.466;2024-01-15T03:25:00;2.72;;;2.50;;
14137;SDS011;8199;51.310;9.466;2024-01-15T03:27:26;3.13;;;2.65;;
14137;SDS011;8199;51.310;9.466;2024-01-15T03:29:52;2.90;;;2.60;;
14137;SDS011;8199;51.310;9.466;2024-01-15T03:32:17;2.90;;;2.70;;
14137;SDS011;8199;51.310;9.466;2024-01-15T03:34:44;2.65;;;2.45;;
14137;SDS011;8199;51.310;9.466;2024-01-15T03:37:10;2.30;;;2.10;;
14137;SDS011;8199;51.310;9.466;2024-01-15T03:39:36;2.95;;;2.60;;
14137;SDS011;8199;51.310;9.466;2024-01-15T03:42:02;2.67;;;2.47;;
14137;SDS011;8199;51.310;9.466;2024-01-15T03:44:27;2.38;;;2.17;;
14137;SDS011;8199;51.310;9.466;2024-01-15T03:46:54;2.55;;;2.35;;
14137;SDS011;8199;51.310;9.466;2024-01-15T03:49:22;2.08;;;1.88;;
14137;SDS011;8199;51.310;9.466;2024-01-15T03:51:48;2.20;;;2.00;;
14137;SDS011;8199;51.310;9.466;2024-01-15T03:54:14;3.40;;;2.33;;
14137;SDS011;8199;51.310;9.466;2024-01-15T03:56:39;2.50;;;2.30;;
14137;SDS011;8199;51.310;9.466;2024-01-15T03:59:05;2.53;;;2.28;;
14137;SDS011;8199;51.310;9.466;2024-01-15T04:01:30;2.72;;;2.40;;
14137;SDS011;8199;51.310;9.466;2024-01-15T04:03:56;2.50;;;2.30;;
14137;SDS011;8199;51.310;9.466;2024-01-15T04:06:21;2.00;;;1.75;;
14137;SDS011;8199;51.310;9.466;2024-01-15T04:08:47;2.30;;;2.10;;
14137;SDS011;8199;51.310;9.466;2024-01-15T04:11:12;2.38;;;2.17;;
14137;SDS011;8199;51.310;9.466;2024-01-15T04:13:38;2.75;;;2.28;;
14137;SDS011;8199;51.310;9.466;2024-01-15T04:16:04;2.53;;;2.30;;
14137;SDS011;8199;51.310;9.466;2024-01-15T04:18:29;1.98;;;1.85;;
14137;SDS011;8199;51.310;9.466;2024-01-15T04:20:55;2.40;;;2.20;;
14137;SDS011;8199;51.310;9.466;2024-01-15T04:23:20;2.65;;;2.35;;
14137;SDS011;8199;51.310;9.466;2024-01-15T04:25:46;2.35;;;2.15;;
14137;SDS011;8199;51.310;9.466;2024-01-15T04:28:12;2.40;;;2.20;;
14137;SDS011;8199;51.310;9.466;2024-01-15T04:30:37;2.50;;;2.30;;
14137;SDS011;8199;51.310;9.466;2024-01-15T04:33:03;2.33;;;2.13;;
14137;SDS011;8199;51.310;9.466;2024-01-15T04:35:30;2.92;;;2.47;;
14137;SDS011;8199;51.310;9.466;2024-01-15T04:37:55;2.40;;;2.08;;
14137;SDS011;8199;51.310;9.466;2024-01-15T04:40:21;3.05;;;2.60;;
14137;SDS011;8199;51.310;9.466;2024-01-15T04:42:46;2.25;;;2.05;;
14137;SDS011;8199;51.310;9.466;2024-01-15T04:45:12;2.50;;;2.30;;
14137;SDS011;8199;51.310;9.466;2024-01-15T04:47:38;2.40;;;2.20;;
14137;SDS011;8199;51.310;9.466;2024-01-15T04:50:04;2.33;;;2.13;;
14137;SDS011;8199;51.310;9.466;2024-01-15T04:52:30;2.35;;;1.98;;
14137;SDS011;8199;51.310;9.466;2024-01-15T04:54:56;2.10;;;1.90;;
14137;SDS011;8199;51.310;9.466;2024-01-15T04:57:21;2.03;;;1.83;;
14137;SDS011;8199;51.310;9.466;2024-01-15T04:59:47;2.25;;;2.05;;
14137;SDS011;8199;51.310;9.466;2024-01-15T05:02:12;2.05;;;1.95;;
14137;SDS011;8199;51.310;9.466;2024-01-15T05:04:38;2.17;;;1.98;;
14137;SDS011;8199;51.310;9.466;2024-01-15T05:07:04;2.30;;;2.10;;
14137;SDS011;8199;51.310;9.466;2024-01-15T05:09:30;2.40;;;2.20;;
14137;SDS011;8199;51.310;9.466;2024-01-15T05:11:55;2.53;;;2.28;;
14137;SDS011;8199;51.310;9.466;2024-01-15T05:14:21;2.42;;;2.20;;
14137;SDS011;8199;51.310;9.466;2024-01-15T05:16:47;2.38;;;2.17;;
14137;SDS011;8199;51.310;9.466;2024-01-15T05:19:13;1.98;;;1.88;;
14137;SDS011;8199;51.310;9.466;2024-01-15T05:21:38;2.55;;;1.90;;
14137;SDS011;8199;51.310;9.466;2024-01-15T05:24:04;2.22;;;2.10;;
14137;SDS011;8199;51.310;9.466;2024-01-15T05:26:30;2.13;;;1.92;;
14137;SDS011;8199;51.310;9.466;2024-01-15T05:28:55;2.33;;;2.13;;
14137;SDS011;8199;51.310;9.466;2024-01-15T05:31:21;1.92;;;1.77;;
14137;SDS011;8199;51.310;9.466;2024-01-15T05:33:46;2.17;;;1.98;;
14137;SDS011;8199;51.310;9.466;2024-01-15T05:36:12;2.50;;;2.30;;
14137;SDS011;8199;51.310;9.466;2024-01-15T05:38:37;2.25;;;2.05;;
14137;SDS011;8199;51.310;9.466;2024-01-15T05:41:04;2.20;;;2.00;;
14137;SDS011;8199;51.310;9.466;2024-01-15T05:43:30;2.30;;;2.03;;
14137;SDS011;8199;51.310;9.466;2024-01-15T05:45:55;1.85;;;1.65;;
14137;SDS011;8199;51.310;9.466;2024-01-15T05:48:21;1.95;;;1.80;;
14137;SDS011;8199;51.310;9.466;2024-01-15T05:50:47;2.22;;;1.92;;
14137;SDS011;8199;51.310;9.466;2024-01-15T05:53:12;2.80;;;2.20;;
14137;SDS011;8199;51.310;9.466;2024-01-15T05:55:38;2.33;;;2.13;;
14137;SDS011;8199;51.310;9.466;2024-01-15T05:58:04;2.03;;;1.83;;
14137;SDS011;8199;51.310;9.466;2024-01-15T06:00:30;2.22;;;2.03;;
14137;SDS011;8199;51.310;9.466;2024-01-15T06:02:55;2.45;;;2.00;;
14137;SDS011;8199;51.310;9.466;2024-01-15T06:05:21;1.95;;;1.80;;
14137;SDS011;8199;51.310;9.466;2024-01-15T06:07:46;2.05;;;1.80;;
14137;SDS011;8199;51.310;9.466;2024-01-15T06:10:12;2.45;;;2.25;;
14137;SDS011;8199;51.310;9.466;2024-01-15T06:12:37;1.90;;;1.80;;
14137;SDS011;8199;51.310;9.466;2024-01-15T06:15:03;1.85;;;1.70;;
14137;SDS011;8199;51.310;9.466;2024-01-15T06:17:29;2.05;;;1.85;;
14137;SDS011;8199;51.310;9.466;2024-01-15T06:19:56;1.67;;;1.58;;
14137;SDS011;8199;51.310;9.466;2024-01-15T06:22:22;2.63;;;2.08;;
14137;SDS011;8199;51.310;9.466;2024-01-15T06:24:47;2.40;;;1.95;;
14137;SDS011;8199;51.310;9.466;2024-01-15T06:27:13;1.80;;;1.60;;
14137;SDS011;8199;51.310;9.466;2024-01-15T06:29:38;3.08;;;1.88;;
14137;SDS011;8199;51.310;9.466;2024-01-15T06:32:04;2.38;;;2.13;;
14137;SDS011;8199;51.310;9.466;2024-01-15T06:34:30;2.83;;;2.10;;
14137;SDS011;8199;51.310;9.466;2024-01-15T06:36:55;2.22;;;2.03;;
14137;SDS011;8199;51.310;9.466;2024-01-15T06:39:21;2.40;;;2.20;;
14137;SDS011;8199;51.310;9.466;2024-01-15T06:41:46;2.13;;;1.90;;
14137;SDS011;8199;51.310;9.466;2024-01-15T06:44:12;2.03;;;1.83;;
14137;SDS011;8199;51.310;9.466;2024-01-15T06:46:44;2.03;;;1.90;;
14137;SDS011;8199;51.310;9.466;2024-01-15T06:49:10;2.83;;;1.77;;
14137;SDS011;8199;51.310;9.466;2024-01-15T06:51:36;2.33;;;1.60;;
14137;SDS011;8199;51.310;9.466;2024-01-15T06:54:02;2.42;;;1.40;;
14137;SDS011;8199;51.310;9.466;2024-01-15T06:56:28;3.60;;;1.63;;
14137;SDS011;8199;51.310;9.466;2024-01-15T06:58:54;1.73;;;1.63;;
14137;SDS011;8199;51.310;9.466;2024-01-15T07:01:19;1.83;;;1.58;;
14137;SDS011;8199;51.310;9.466;2024-01-15T07:03:45;1.63;;;1.50;;
14137;SDS011;8199;51.310;9.466;2024-01-15T07:06:11;2.40;;;2.20;;
14137;SDS011;8199;51.310;9.466;2024-01-15T07:08:37;1.70;;;1.60;;
14137;SDS011;8199;51.310;9.466;2024-01-15T07:11:03;2.65;;;1.80;;
14137;SDS011;8199;51.310;9.466;2024-01-15T07:13:29;2.40;;;1.58;;
14137;SDS011;8199;51.310;9.466;2024-01-15T07:15:55;3.13;;;1.95;;
14137;SDS011;8199;51.310;9.466;2024-01-15T07:18:20;3.88;;;1.90;;
14137;SDS011;8199;51.310;9.466;2024-01-15T07:20:46;4.00;;;1.88;;
14137;SDS011;8199;51.310;9.466;2024-01-15T07:23:12;3.63;;;2.03;;
14137;SDS011;8199;51.310;9.466;2024-01-15T07:25:37;2.75;;;2.20;;
14137;SDS011;8199;51.310;9.466;2024-01-15T07:28:03;2.10;;;1.90;;
14137;SDS011;8199;51.310;9.466;2024-01-15T07:30:29;2.10;;;1.85;;
14137;SDS011;8199;51.310;9.466;2024-01-15T07:32:54;2.17;;;1.60;;
14137;SDS011;8199;51.310;9.466;2024-01-15T07:35:20;2.42;;;1.73;;
14137;SDS011;8199;51.310;9.466;2024-01-15T07:37:46;2.00;;;1.80;;
14137;SDS011;8199;51.310;9.466;2024-01-15T07:40:11;2.05;;;1.80;;
14137;SDS011;8199;51.310;9.466;2024-01-15T07:42:37;2.30;;;1.67;;
14137;SDS011;8199;51.310;9.466;2024-01-15T07:45:03;2.10;;;1.70;;
14137;SDS011;8199;51.310;9.466;2024-01-15T07:47:30;1.67;;;1.55;;
14137;SDS011;8199;51.310;9.466;2024-01-15T07:49:55;1.80;;;1.70;;
14137;SDS011;8199;51.310;9.466;2024-01-15T07:52:21;1.75;;;1.50;;
14137;SDS011;8199;51.310;9.466;2024-01-15T07:54:47;2.60;;;1.70;;
14137;SDS011;8199;51.310;9.466;2024-01-15T07:57:12;1.60;;;1.50;;
14137;SDS011;8199;51.310;9.466;2024-01-15T07:59:38;3.28;;;1.92;;
14137;SDS011;8199;51.310;9.466;2024-01-15T08:02:04;4.22;;;1.90;;
14137;SDS011;8199;51.310;9.466;2024-01-15T08:04:30;2.30;;;1.80;;
14137;SDS011;8199;51.310;9.466;2024-01-15T08:06:55;5.20;;;2.28;;
14137;SDS011;8199;51.310;9.466;2024-01-15T08:09:22;5.00;;;1.73;;
14137;SDS011;8199;51.310;9.466;2024-01-15T08:11:47;3.03;;;1.73;;
14137;SDS011;8199;51.310;9.466;2024-01-15T08:14:14;9.15;;;6.05;;
14137;SDS011;8199;51.310;9.466;2024-01-15T08:16:40;11.43;;;3.53;;
14137;SDS011;8199;51.310;9.466;2024-01-15T08:19:05;8.77;;;2.85;;
14137;SDS011;8199;51.310;9.466;2024-01-15T08:21:31;15.88;;;3.30;;
14137;SDS011;8199;51.310;9.466;2024-01-15T08:23:57;10.73;;;3.08;;
14137;SDS011;8199;51.310;9.466;2024-01-15T08:26:24;11.55;;;3.28;;
14137;SDS011;8199;51.310;9.466;2024-01-15T08:28:50;6.40;;;2.97;;
14137;SDS011;8199;51.310;9.466;2024-01-15T08:31:16;8.63;;;3.05;;
14137;SDS011;8199;51.310;9.466;2024-01-15T08:33:42;6.75;;;3.20;;
14137;SDS011;8199;51.310;9.466;2024-01-15T08:36:07;5.05;;;2.40;;
14137;SDS011;8199;51.310;9.466;2024-01-15T08:38:34;5.93;;;2.70;;
14137;SDS011;8199;51.310;9.466;2024-01-15T08:40:59;7.55;;;2.80;;
14137;SDS011;8199;51.310;9.466;2024-01-15T08:43:26;6.10;;;2.50;;
14137;SDS011;8199;51.310;9.466;2024-01-15T08:45:52;6.70;;;2.90;;
14137;SDS011;8199;51.310;9.466;2024-01-15T08:48:18;5.13;;;2.70;;
14137;SDS011;8199;51.310;9.466;2024-01-15T08:50:44;6.22;;;2.83;;
14137;SDS011;8199;51.310;9.466;2024-01-15T08:53:11;4.50;;;2.53;;
14137;SDS011;8199;51.310;9.466;2024-01-15T08:55:37;6.40;;;3.08;;
14137;SDS011;8199;51.310;9.466;2024-01-15T08:58:03;4.22;;;2.42;;
14137;SDS011;8199;51.310;9.466;2024-01-15T09:00:28;4.55;;;2.25;;
14137;SDS011;8199;51.310;9.466;2024-01-15T09:02:55;3.33;;;2.63;;
14137;SDS011;8199;51.310;9.466;2024-01-15T09:05:21;6.47;;;2.75;;
14137;SDS011;8199;51.310;9.466;2024-01-15T09:07:47;5.88;;;2.55;;
14137;SDS011;8199;51.310;9.466;2024-01-15T09:10:13;5.28;;;2.50;;
14137;SDS011;8199;51.310;9.466;2024-01-15T09:12:38;5.00;;;2.40;;
14137;SDS011;8199;51.310;9.466;2024-01-15T09:15:04;3.70;;;2.25;;
14137;SDS011;8199;51.310;9.466;2024-01-15T09:17:31;5.63;;;2.50;;
14137;SDS011;8199;51.310;9.466;2024-01-15T09:19:57;3.58;;;2.17;;
14137;SDS011;8199;51.310;9.466;2024-01-15T09:22:23;3.60;;;2.30;;
14137;SDS011;8199;51.310;9.466;2024-01-15T09:24:48;4.18;;;2.47;;
14137;SDS011;8199;51.310;9.466;2024-01-15T09:27:14;5.20;;;2.38;;
14137;SDS011;8199;51.310;9.466;2024-01-15T09:29:40;5.45;;;2.20;;
14137;SDS011;8199;51.310;9.466;2024-01-15T09:32:07;3.70;;;2.42;;
14137;SDS011;8199;51.310;9.466;2024-01-15T09:34:33;3.88;;;2.30;;
14137;SDS011;8199;51.310;9.466;2024-01-15T09:36:59;3.22;;;2.30;;
14137;SDS011;8199;51.310;9.466;2024-01-15T09:39:25;3.25;;;2.33;;
14137;SDS011;8199;51.310;9.466;2024-01-15T09:41:51;2.75;;;2.10;;
14137;SDS011;8199;51.310;9.466;2024-01-15T09:44:18;4.25;;;2.35;;
14137;SDS011;8199;51.310;9.466;2024-01-15T09:46:45;4.78;;;1.90;;
14137;SDS011;8199;51.310;9.466;2024-01-15T09:49:17;3.90;;;2.17;;
14137;SDS011;8199;51.310;9.466;2024-01-15T09:51:43;3.42;;;1.75;;
14137;SDS011;8199;51.310;9.466;2024-01-15T09:54:09;3.67;;;1.90;;
14137;SDS011;8199;51.310;9.466;2024-01-15T09:56:35;3.97;;;2.20;;
14137;SDS011;8199;51.310;9.466;2024-01-15T09:59:01;2.78;;;1.95;;
14137;SDS011;8199;51.310;9.466;2024-01-15T10:01:29;3.28;;;1.80;;
14137;SDS011;8199;51.310;9.466;2024-01-15T10:03:56;3.97;;;2.38;;
14137;SDS011;8199;51.310;9.466;2024-01-15T10:06:23;4.32;;;2.28;;
14137;SDS011;8199;51.310;9.466;2024-01-15T10:08:53;3.65;;;2.10;;
14137;SDS011;8199;51.310;9.466;2024-01-15T10:11:21;2.40;;;1.85;;
14137;SDS011;8199;51.310;9.466;2024-01-15T10:13:47;3.95;;;1.90;;
14137;SDS011;8199;51.310;9.466;2024-01-15T10:16:16;4.05;;;2.13;;
14137;SDS011;8199;51.310;9.466;2024-01-15T10:18:41;3.00;;;2.38;;
14137;SDS011;8199;51.310;9.466;2024-01-15T10:21:07;4.07;;;2.30;;
14137;SDS011;8199;51.310;9.466;2024-01-15T10:23:33;4.10;;;2.40;;
14137;SDS011;8199;51.310;9.466;2024-01-15T10:25:59;3.70;;;2.33;;
14137;SDS011;8199;51.310;9.466;2024-01-15T10:28:28;4.80;;;2.40;;
14137;SDS011;8199;51.310;9.466;2024-01-15T10:30:56;2.88;;;2.15;;
14137;SDS011;8199;51.310;9.466;2024-01-15T10:33:23;2.38;;;2.00;;
14137;SDS011;8199;51.310;9.466;2024-01-15T10:35:51;3.22;;;2.60;;
14137;SDS011;8199;51.310;9.466;2024-01-15T10:38:20;3.58;;;2.33;;
14137;SDS011;8199;51.310;9.466;2024-01-15T10:40:56;3.53;;;2.67;;
14137;SDS011;8199;51.310;9.466;2024-01-15T10:43:22;2.47;;;2.25;;
14137;SDS011;8199;51.310;9.466;2024-01-15T10:45:49;2.38;;;1.73;;
14137;SDS011;8199;51.310;9.466;2024-01-15T10:48:18;3.67;;;2.08;;
14137;SDS011;8199;51.310;9.466;2024-01-15T10:50:45;2.85;;;1.95;;
14137;SDS011;8199;51.310;9.466;2024-01-15T10:53:15;4.28;;;2.15;;
14137;SDS011;8199;51.310;9.466;2024-01-15T10:55:42;5.38;;;2.50;;
14137;SDS011;8199;51.310;9.466;2024-01-15T10:58:08;4.13;;;2.15;;
14137;SDS011;8199;51.310;9.466;2024-01-15T11:00:35;5.15;;;2.17;;
14137;SDS011;8199;51.310;9.466;2024-01-15T11:03:03;4.05;;;2.60;;
14137;SDS011;8199;51.310;9.466;2024-01-15T11:05:33;3.30;;;2.00;;
14137;SDS011;8199;51.310;9.466;2024-01-15T11:07:59;3.55;;;1.80;;
14137;SDS011;8199;51.310;9.466;2024-01-15T11:10:46;3.40;;;2.20;;
14137;SDS011;8199;51.310;9.466;2024-01-15T11:16:02;3.28;;;1.77;;
14137;SDS011;8199;51.310;9.466;2024-01-15T11:18:34;3.47;;;1.98;;
14137;SDS011;8199;51.310;9.466;2024-01-15T11:23:42;4.03;;;2.20;;
14137;SDS011;8199;51.310;9.466;2024-01-15T11:29:06;3.78;;;2.13;;
14137;SDS011;8199;51.310;9.466;2024-01-15T11:34:08;2.47;;;1.95;;
14137;SDS011;8199;51.310;9.466;2024-01-15T11:41:58;4.18;;;1.73;;
14137;SDS011;8199;51.310;9.466;2024-01-15T11:44:25;3.17;;;1.95;;
14137;SDS011;8199;51.310;9.466;2024-01-15T11:46:57;3.00;;;1.75;;
14137;SDS011;8199;51.310;9.466;2024-01-15T11:52:17;3.25;;;2.15;;
14137;SDS011;8199;51.310;9.466;2024-01-15T11:54:49;4.00;;;2.03;;
14137;SDS011;8199;51.310;9.466;2024-01-15T12:00:05;5.18;;;2.47;;
14137;SDS011;8199;51.310;9.466;2024-01-15T12:02:31;4.25;;;1.77;;
14137;SDS011;8199;51.310;9.466;2024-01-15T12:04:57;3.30;;;1.80;;
14137;SDS011;8199;51.310;9.466;2024-01-15T12:07:23;3.70;;;1.75;;
14137;SDS011;8199;51.310;9.466;2024-01-15T12:09:48;3.45;;;1.77;;
14137;SDS011;8199;51.310;9.466;2024-01-15T12:12:16;4.57;;;1.92;;
14137;SDS011;8199;51.310;9.466;2024-01-15T12:14:54;8.70;;;2.38;;
14137;SDS011;8199;51.310;9.466;2024-01-15T12:17:19;5.68;;;2.45;;
14137;SDS011;8199;51.310;9.466;2024-01-15T12:19:45;5.15;;;2.08;;
14137;SDS011;8199;51.310;9.466;2024-01-15T12:22:11;5.78;;;2.35;;
14137;SDS011;8199;51.310;9.466;2024-01-15T12:24:37;5.65;;;2.53;;
14137;SDS011;8199;51.310;9.466;2024-01-15T12:27:02;4.28;;;1.92;;
14137;SDS011;8199;51.310;9.466;2024-01-15T12:29:29;5.00;;;1.80;;
14137;SDS011;8199;51.310;9.466;2024-01-15T12:31:55;2.75;;;1.75;;
14137;SDS011;8199;51.310;9.466;2024-01-15T12:34:21;5.22;;;2.15;;
14137;SDS011;8199;51.310;9.466;2024-01-15T12:36:47;3.75;;;1.65;;
14137;SDS011;8199;51.310;9.466;2024-01-15T12:39:12;4.63;;;1.67;;
14137;SDS011;8199;51.310;9.466;2024-01-15T12:41:38;5.05;;;1.83;;
14137;SDS011;8199;51.310;9.466;2024-01-15T12:44:04;3.35;;;1.60;;
14137;SDS011;8199;51.310;9.466;2024-01-15T12:46:30;2.95;;;1.60;;
14137;SDS011;8199;51.310;9.466;2024-01-15T12:48:56;3.25;;;1.95;;
14137;SDS011;8199;51.310;9.466;2024-01-15T12:51:25;3.33;;;1.75;;
14137;SDS011;8199;51.310;9.466;2024-01-15T12:53:51;2.75;;;1.52;;
14137;SDS011;8199;51.310;9.466;2024-01-15T12:56:17;2.75;;;1.80;;
14137;SDS011;8199;51.310;9.466;2024-01-15T12:58:43;2.05;;;1.65;;
14137;SDS011;8199;51.310;9.466;2024-01-15T13:01:09;2.42;;;1.40;;
14137;SDS011;8199;51.310;9.466;2024-01-15T13:03:35;1.83;;;1.63;;
14137;SDS011;8199;51.310;9.466;2024-01-15T13:06:00;1.70;;;1.17;;
14137;SDS011;8199;51.310;9.466;2024-01-15T13:08:26;9.65;;;1.80;;
14137;SDS011;8199;51.310;9.466;2024-01-15T13:10:54;4.82;;;1.63;;
14137;SDS011;8199;51.310;9.466;2024-01-15T13:13:22;4.43;;;1.40;;
14137;SDS011;8199;51.310;9.466;2024-01-15T13:15:47;4.22;;;1.83;;
14137;SDS011;8199;51.310;9.466;2024-01-15T13:18:13;3.42;;;1.48;;
14137;SDS011;8199;51.310;9.466;2024-01-15T13:20:38;2.05;;;1.40;;
14137;SDS011;8199;51.310;9.466;2024-01-15T13:23:04;3.05;;;1.60;;
14137;SDS011;8199;51.310;9.466;2024-01-15T13:25:30;2.88;;;1.15;;
14137;SDS011;8199;51.310;9.466;2024-01-15T13:27:55;3.33;;;1.40;;
14137;SDS011;8199;51.310;9.466;2024-01-15T13:30:21;2.85;;;1.67;;
14137;SDS011;8199;51.310;9.466;2024-01-15T13:32:46;2.30;;;1.30;;
14137;SDS011;8199;51.310;9.466;2024-01-15T13:35:12;2.85;;;1.70;;
14137;SDS011;8199;51.310;9.466;2024-01-15T13:37:38;3.65;;;1.33;;
14137;SDS011;8199;51.310;9.466;2024-01-15T13:40:06;3.03;;;1.35;;
14137;SDS011;8199;51.310;9.466;2024-01-15T13:42:34;1.73;;;1.25;;
14137;SDS011;8199;51.310;9.466;2024-01-15T13:45:03;1.75;;;1.10;;
14137;SDS011;8199;51.310;9.466;2024-01-15T13:47:31;2.55;;;1.67;;
14137;SDS011;8199;51.310;9.466;2024-01-15T13:49:56;2.38;;;1.35;;
14137;SDS011;8199;51.310;9.466;2024-01-15T13:52:22;1.83;;;0.98;;
14137;SDS011;8199;51.310;9.466;2024-01-15T13:54:48;2.05;;;1.40;;
14137;SDS011;8199;51.310;9.466;2024-01-15T13:57:13;3.08;;;1.40;;
14137;SDS011;8199;51.310;9.466;2024-01-15T13:59:39;3.13;;;1.30;;
14137;SDS011;8199;51.310;9.466;2024-01-15T14:02:05;1.95;;;1.20;;
14137;SDS011;8199;51.310;9.466;2024-01-15T14:04:30;2.05;;;1.45;;
14137;SDS011;8199;51.310;9.466;2024-01-15T14:06:56;2.28;;;1.20;;
14137;SDS011;8199;51.310;9.466;2024-01-15T14:09:21;2.05;;;1.17;;
14137;SDS011;8199;51.310;9.466;2024-01-15T14:11:47;3.38;;;1.50;;
14137;SDS011;8199;51.310;9.466;2024-01-15T14:14:13;1.52;;;1.20;;
14137;SDS011;8199;51.310;9.466;2024-01-15T14:16:39;1.80;;;0.98;;
14137;SDS011;8199;51.310;9.466;2024-01-15T14:19:05;3.45;;;1.40;;
14137;SDS011;8199;51.310;9.466;2024-01-15T14:21:34;2.55;;;1.02;;
14137;SDS011;8199;51.310;9.466;2024-01-15T14:24:00;2.25;;;1.20;;
14137;SDS011;8199;51.310;9.466;2024-01-15T14:26:26;2.10;;;1.20;;
14137;SDS011;8199;51.310;9.466;2024-01-15T14:28:52;1.63;;;1.10;;
14137;SDS011;8199;51.310;9.466;2024-01-15T14:31:19;1.73;;;1.27;;
14137;SDS011;8199;51.310;9.466;2024-01-15T14:33:45;2.90;;;1.20;;
14137;SDS011;8199;51.310;9.466;2024-01-15T14:36:10;3.45;;;1.42;;
14137;SDS011;8199;51.310;9.466;2024-01-15T14:38:36;1.92;;;1.00;;
14137;SDS011;8199;51.310;9.466;2024-01-15T14:41:02;2.38;;;1.20;;
14137;SDS011;8199;51.310;9.466;2024-01-15T14:43:27;3.97;;;1.55;;
14137;SDS011;8199;51.310;9.466;2024-01-15T14:45:53;2.78;;;1.60;;
14137;SDS011;8199;51.310;9.466;2024-01-15T14:48:18;1.90;;;1.30;;
14137;SDS011;8199;51.310;9.466;2024-01-15T14:50:44;1.65;;;1.10;;
14137;SDS011;8199;51.310;9.466;2024-01-15T14:53:09;1.75;;;1.10;;
14137;SDS011;8199;51.310;9.466;2024-01-15T14:55:35;2.83;;;1.63;;
14137;SDS011;8199;51.310;9.466;2024-01-15T14:58:01;1.48;;;1.10;;
14137;SDS011;8199;51.310;9.466;2024-01-15T15:00:27;1.60;;;1.10;;
14137;SDS011;8199;51.310;9.466;2024-01-15T15:02:53;3.10;;;1.25;;
14137;SDS011;8199;51.310;9.466;2024-01-15T15:05:18;1.65;;;1.02;;
14137;SDS011;8199;51.310;9.466;2024-01-15T15:07:45;2.65;;;1.30;;
14137;SDS011;8199;51.310;9.466;2024-01-15T15:10:10;2.90;;;1.30;;
14137;SDS011;8199;51.310;9.466;2024-01-15T15:12:36;2.05;;;1.33;;
14137;SDS011;8199;51.310;9.466;2024-01-15T15:15:02;2.88;;;1.00;;